createdAt,value
2022-07-31T00:00:55.811Z,77.24
2022-07-31T00:03:24.146Z,79.11
2022-07-31T00:05:52.568Z,78.88
2022-07-31T00:08:21.115Z,78.50
2022-07-31T00:10:49.334Z,79.82
2022-07-31T00:13:17.675Z,78.20
2022-07-31T00:15:45.918Z,78.64
2022-07-31T00:18:15.692Z,76.86
2022-07-31T00:20:45.196Z,78.05
2022-07-31T00:23:13.574Z,78.06
2022-07-31T00:25:47.271Z,77.27
2022-07-31T00:28:15.711Z,77.25
2022-07-31T00:30:44.063Z,76.34
2022-07-31T00:33:12.474Z,76.68
2022-07-31T00:35:42.303Z,77.12
2022-07-31T00:38:27.666Z,77.66
2022-07-31T00:40:56.450Z,76.05
2022-07-31T00:43:27.455Z,75.14
2022-07-31T00:45:59.518Z,76.18
2022-07-31T00:48:30.221Z,75.49
2022-07-31T00:50:59.911Z,75.16
2022-07-31T00:53:28.334Z,76.18
2022-07-31T00:55:57.809Z,76.28
2022-07-31T00:58:26.681Z,76.34
2022-07-31T01:00:55.085Z,75.06
2022-07-31T01:03:23.594Z,75.40
2022-07-31T01:05:51.827Z,74.78
2022-07-31T01:08:21.449Z,74.77
2022-07-31T01:11:00.185Z,74.71
2022-07-31T01:13:34.102Z,74.89
2022-07-31T01:16:04.638Z,74.61
2022-07-31T01:18:36.084Z,74.72
2022-07-31T01:21:12.559Z,74.57
2022-07-31T01:24:01.880Z,74.53
2022-07-31T01:26:47.071Z,75.00
2022-07-31T01:29:23.294Z,75.13
2022-07-31T01:31:58.733Z,75.22
2022-07-31T01:34:32.928Z,75.14
2022-07-31T01:37:10.498Z,74.79
2022-07-31T01:39:51.814Z,74.60
2022-07-31T01:42:21.997Z,74.38
2022-07-31T01:44:56.895Z,74.28
2022-07-31T01:47:27.955Z,74.16
2022-07-31T01:49:58.414Z,73.96
2022-07-31T01:52:29.732Z,73.83
2022-07-31T01:54:59.949Z,73.65
2022-07-31T01:57:30.051Z,73.39
2022-07-31T02:00:06.740Z,73.15
2022-07-31T02:02:58.763Z,72.99
2022-07-31T02:05:41.777Z,73.01
2022-07-31T02:08:12.121Z,73.09
2022-07-31T02:10:45.568Z,73.16
2022-07-31T02:13:14.864Z,73.26
2022-07-31T02:15:45.768Z,73.35
2022-07-31T02:18:17.957Z,73.48
2022-07-31T02:21:03.340Z,73.49
2022-07-31T02:23:33.808Z,73.39
2022-07-31T02:26:03.103Z,73.43
2022-07-31T02:28:33.246Z,73.64
2022-07-31T02:31:04.045Z,73.59
2022-07-31T02:33:34.239Z,73.61
2022-07-31T02:36:03.837Z,73.54
2022-07-31T02:38:33.623Z,73.69
2022-07-31T02:41:05.154Z,73.65
2022-07-31T02:43:35.238Z,73.63
2022-07-31T02:46:23.217Z,73.61
2022-07-31T02:48:52.717Z,73.89
2022-07-31T02:51:24.816Z,73.99
2022-07-31T02:53:54.698Z,73.96
2022-07-31T02:56:26.378Z,74.09
2022-07-31T02:58:55.740Z,74.10
2022-07-31T03:01:35.627Z,74.15
2022-07-31T03:04:04.304Z,74.18
2022-07-31T03:06:32.580Z,74.17
2022-07-31T03:09:00.964Z,74.16
2022-07-31T03:11:31.981Z,74.28
2022-07-31T03:14:03.357Z,74.13
2022-07-31T03:16:34.139Z,74.15
2022-07-31T03:19:05.340Z,74.18
2022-07-31T03:21:34.073Z,74.31
2022-07-31T03:24:05.709Z,74.35
2022-07-31T03:26:34.764Z,74.46
2022-07-31T03:29:03.538Z,74.48
2022-07-31T03:31:33.361Z,74.75
2022-07-31T03:34:01.944Z,74.94
2022-07-31T03:36:32.089Z,74.92
2022-07-31T03:39:00.409Z,75.05
2022-07-31T03:41:42.216Z,75.21
2022-07-31T03:44:11.434Z,75.18
2022-07-31T03:46:41.335Z,75.19
2022-07-31T03:49:10.490Z,75.31
2022-07-31T03:51:39.013Z,75.52
2022-07-31T03:54:07.666Z,75.76
2022-07-31T03:56:47.951Z,75.80
2022-07-31T03:59:19.152Z,75.99
2022-07-31T04:01:58.167Z,76.08
2022-07-31T04:04:59.432Z,76.24
2022-07-31T04:07:28.331Z,76.44
2022-07-31T04:09:57.096Z,76.45
2022-07-31T04:12:25.399Z,76.68
2022-07-31T04:14:53.700Z,76.75
2022-07-31T04:17:23.491Z,76.82
2022-07-31T04:19:51.936Z,76.85
2022-07-31T04:22:20.287Z,76.89
2022-07-31T04:24:50.140Z,76.86
2022-07-31T04:27:27.211Z,76.81
2022-07-31T04:29:57.111Z,76.53
2022-07-31T04:32:26.740Z,76.55
2022-07-31T04:35:00.219Z,76.57
2022-07-31T04:37:28.525Z,76.63
2022-07-31T04:39:58.349Z,76.67
2022-07-31T04:42:26.838Z,76.64
2022-07-31T04:44:55.095Z,76.76
2022-07-31T04:47:23.380Z,76.69
2022-07-31T04:49:54.494Z,76.61
2022-07-31T04:52:22.826Z,76.50
2022-07-31T04:54:52.549Z,76.44
2022-07-31T04:57:22.091Z,76.47
2022-07-31T04:59:59.705Z,76.34
2022-07-31T05:02:31.001Z,76.41
2022-07-31T05:05:00.769Z,76.30
2022-07-31T05:07:34.740Z,76.38
2022-07-31T05:10:08.233Z,76.28
2022-07-31T05:12:37.618Z,76.18
2022-07-31T05:15:07.968Z,76.08
2022-07-31T05:17:38.670Z,75.79
2022-07-31T05:20:34.150Z,75.63
2022-07-31T05:23:26.772Z,75.50
2022-07-31T05:26:15.208Z,75.15
2022-07-31T05:28:44.286Z,75.28
2022-07-31T05:31:15.223Z,75.31
2022-07-31T05:33:44.012Z,75.44
2022-07-31T05:36:14.181Z,75.35
2022-07-31T05:38:43.282Z,75.20
2022-07-31T05:41:40.391Z,75.21
2022-07-31T05:44:27.476Z,75.09
2022-07-31T05:49:26.819Z,74.93
2022-07-31T05:51:58.039Z,74.86
2022-07-31T05:54:26.930Z,74.54
2022-07-31T05:57:33.377Z,74.57
2022-07-31T06:00:03.968Z,74.44
2022-07-31T06:02:40.385Z,74.45
2022-07-31T06:05:27.867Z,74.15
2022-07-31T06:07:57.749Z,74.52
2022-07-31T06:10:26.534Z,74.30
2022-07-31T06:12:55.326Z,74.19
2022-07-31T06:15:23.711Z,74.00
2022-07-31T06:17:52.316Z,73.84
2022-07-31T06:20:28.842Z,73.30
2022-07-31T06:22:58.637Z,73.34
2022-07-31T06:25:35.018Z,73.26
2022-07-31T06:28:10.652Z,73.03
2022-07-31T06:30:41.313Z,73.15
2022-07-31T06:33:09.832Z,73.03
2022-07-31T06:35:48.658Z,73.25
2022-07-31T06:38:47.496Z,72.58
2022-07-31T06:41:50.920Z,72.36
2022-07-31T06:44:31.933Z,72.56
2022-07-31T06:47:19.738Z,72.44
2022-07-31T06:50:07.575Z,71.75
2022-07-31T06:52:48.856Z,71.42
2022-07-31T06:55:18.644Z,71.61
2022-07-31T06:57:47.993Z,71.74
2022-07-31T07:00:20.327Z,71.47
2022-07-31T07:02:52.179Z,71.48
2022-07-31T07:05:21.688Z,72.09
2022-07-31T07:07:53.307Z,72.38
2022-07-31T07:10:24.054Z,72.45
2022-07-31T07:13:01.492Z,71.91
2022-07-31T07:15:34.426Z,71.85
2022-07-31T07:18:03.673Z,71.65
2022-07-31T07:20:45.954Z,71.16
2022-07-31T07:23:14.303Z,71.51
2022-07-31T07:25:53.260Z,71.14
2022-07-31T07:28:30.053Z,70.20
2022-07-31T07:31:01.866Z,69.51
2022-07-31T07:33:41.488Z,69.10
2022-07-31T07:36:23.452Z,68.97
2022-07-31T07:39:05.023Z,68.77
2022-07-31T07:41:38.627Z,68.04
2022-07-31T07:44:07.858Z,68.55
2022-07-31T07:46:36.685Z,68.74
2022-07-31T07:49:06.777Z,69.25
2022-07-31T07:51:37.760Z,68.66
2022-07-31T07:54:45.964Z,68.28
2022-07-31T07:57:24.703Z,67.10
2022-07-31T08:00:13.283Z,66.58
2022-07-31T08:03:46.681Z,66.86
2022-07-31T08:05:46.020Z,65.37
2022-07-31T08:08:14.327Z,64.08
2022-07-31T08:10:43.292Z,64.93
2022-07-31T08:13:24.764Z,64.30
2022-07-31T08:16:13.729Z,63.83
2022-07-31T08:18:45.007Z,63.47
2022-07-31T08:21:13.392Z,63.37
2022-07-31T08:23:42.257Z,64.53
2022-07-31T08:26:13.815Z,64.57
2022-07-31T08:28:50.760Z,64.59
2022-07-31T08:31:21.219Z,63.45
2022-07-31T08:34:09.529Z,62.89
2022-07-31T08:36:41.999Z,63.02
2022-07-31T08:39:10.312Z,62.59
2022-07-31T08:42:05.992Z,63.57
2022-07-31T08:44:37.401Z,62.53
2022-07-31T08:47:08.259Z,63.36
2022-07-31T08:49:40.853Z,63.19
2022-07-31T08:52:11.100Z,62.75
2022-07-31T08:55:07.398Z,62.34
2022-07-31T08:57:37.031Z,62.37
2022-07-31T09:00:09.138Z,61.36
2022-07-31T09:02:43.274Z,61.63
2022-07-31T09:05:42.700Z,61.00
2022-07-31T09:08:15.107Z,60.68
2022-07-31T09:10:49.881Z,61.37
2022-07-31T09:13:19.812Z,61.61
2022-07-31T09:15:52.742Z,61.72
2022-07-31T09:18:24.850Z,61.20
2022-07-31T09:21:08.269Z,61.09
2022-07-31T09:23:45.563Z,61.70
2022-07-31T09:26:14.395Z,61.27
2022-07-31T09:28:44.779Z,61.79
2022-07-31T09:31:15.044Z,62.29
2022-07-31T09:34:00.172Z,62.24
2022-07-31T09:36:28.970Z,61.60
2022-07-31T09:39:15.231Z,62.69
2022-07-31T09:42:19.496Z,63.54
2022-07-31T09:45:21.988Z,62.62
2022-07-31T09:48:04.009Z,61.80
2022-07-31T09:50:33.517Z,61.26
2022-07-31T09:53:43.368Z,61.10
2022-07-31T09:56:33.108Z,60.66
2022-07-31T09:59:02.944Z,59.23
2022-07-31T10:01:36.399Z,59.28
2022-07-31T10:04:08.072Z,59.09
2022-07-31T10:06:37.446Z,59.58
2022-07-31T10:09:07.524Z,59.23
2022-07-31T10:12:06.810Z,60.36
2022-07-31T10:14:40.497Z,60.25
2022-07-31T10:17:11.441Z,61.56
2022-07-31T10:20:08.362Z,61.05
2022-07-31T10:22:47.987Z,60.81
2022-07-31T10:25:23.913Z,60.75
2022-07-31T10:27:54.174Z,59.45
2022-07-31T10:30:39.201Z,60.01
2022-07-31T10:33:40.858Z,60.02
2022-07-31T10:36:23.163Z,58.93
2022-07-31T10:39:28.711Z,59.61
2022-07-31T10:42:28.335Z,59.64
2022-07-31T10:45:05.712Z,59.78
2022-07-31T10:48:00.623Z,60.57
2022-07-31T10:50:48.302Z,60.32
2022-07-31T10:53:56.787Z,60.56
2022-07-31T10:56:49.737Z,59.38
2022-07-31T10:59:39.728Z,58.16
2022-07-31T11:02:29.910Z,59.27
2022-07-31T11:05:23.083Z,59.04
2022-07-31T11:08:20.390Z,57.48
2022-07-31T11:10:55.614Z,57.91
2022-07-31T11:13:52.603Z,58.23
2022-07-31T11:16:50.880Z,57.39
2022-07-31T11:19:43.162Z,56.55
2022-07-31T11:22:31.421Z,56.95
2022-07-31T11:25:05.548Z,57.23
2022-07-31T11:27:36.243Z,56.77
2022-07-31T11:30:12.519Z,56.10
2022-07-31T11:32:41.892Z,56.16
2022-07-31T11:35:10.993Z,56.42
2022-07-31T11:37:56.278Z,56.52
2022-07-31T11:40:27.301Z,57.96
2022-07-31T11:43:25.411Z,57.76
2022-07-31T11:45:48.612Z,58.25
2022-07-31T11:48:19.165Z,58.23
2022-07-31T11:50:49.141Z,58.10
2022-07-31T11:53:17.672Z,57.58
2022-07-31T11:55:48.642Z,58.34
2022-07-31T11:58:20.594Z,58.26
2022-07-31T12:00:50.474Z,57.64
2022-07-31T12:03:19.543Z,57.94
2022-07-31T12:05:48.952Z,57.63
2022-07-31T12:08:17.944Z,55.90
2022-07-31T12:10:46.959Z,55.96
2022-07-31T12:13:16.675Z,55.40
2022-07-31T12:16:00.817Z,55.11
2022-07-31T12:18:30.364Z,55.63
2022-07-31T12:21:05.952Z,55.42
2022-07-31T12:23:46.404Z,56.33
2022-07-31T12:26:25.359Z,56.72
2022-07-31T12:29:01.168Z,55.51
2022-07-31T12:31:32.818Z,55.42
2022-07-31T12:34:01.242Z,54.91
2022-07-31T12:36:29.491Z,55.39
2022-07-31T12:39:01.640Z,55.16
2022-07-31T12:41:30.517Z,54.00
2022-07-31T12:44:13.188Z,54.73
2022-07-31T12:46:44.055Z,55.55
2022-07-31T12:49:12.580Z,55.00
2022-07-31T12:51:44.922Z,55.78
2022-07-31T12:54:18.352Z,54.64
2022-07-31T12:56:49.878Z,55.79
2022-07-31T12:59:18.181Z,56.45
2022-07-31T13:01:47.802Z,55.92
2022-07-31T13:04:18.674Z,57.29
2022-07-31T13:06:52.046Z,56.83
2022-07-31T13:09:20.824Z,57.39
2022-07-31T13:11:52.250Z,58.06
2022-07-31T13:14:24.602Z,57.40
2022-07-31T13:16:55.446Z,57.55
2022-07-31T13:19:23.759Z,57.35
2022-07-31T13:21:52.038Z,57.17
2022-07-31T13:24:25.144Z,56.62
2022-07-31T13:26:53.584Z,55.87
2022-07-31T13:29:22.019Z,55.93
2022-07-31T13:31:50.336Z,56.79
2022-07-31T13:34:22.020Z,56.74
2022-07-31T13:36:50.508Z,56.92
2022-07-31T13:39:18.836Z,55.81
2022-07-31T13:41:47.236Z,56.01
2022-07-31T13:44:16.862Z,55.45
2022-07-31T13:46:45.311Z,54.46
2022-07-31T13:49:13.728Z,55.35
2022-07-31T13:51:43.589Z,55.71
2022-07-31T13:54:12.006Z,55.08
2022-07-31T13:56:43.475Z,55.07
2022-07-31T13:59:13.848Z,55.52
2022-07-31T14:02:03.880Z,54.80
2022-07-31T14:04:32.816Z,54.12
2022-07-31T14:07:09.248Z,54.76
2022-07-31T14:09:37.979Z,54.09
2022-07-31T14:12:07.246Z,55.61
2022-07-31T14:14:35.931Z,54.29
2022-07-31T14:17:04.269Z,55.29
2022-07-31T14:19:43.913Z,55.81
2022-07-31T14:22:15.075Z,55.04
2022-07-31T14:24:50.021Z,55.34
2022-07-31T14:27:20.046Z,55.48
2022-07-31T14:29:48.461Z,55.86
2022-07-31T14:32:17.039Z,55.55
2022-07-31T14:34:45.370Z,55.19
2022-07-31T14:37:15.091Z,56.00
2022-07-31T14:39:43.491Z,56.71
2022-07-31T14:42:12.748Z,54.90
2022-07-31T14:44:42.347Z,55.39
2022-07-31T14:47:11.620Z,56.47
2022-07-31T14:50:08.949Z,56.46
2022-07-31T14:52:35.609Z,55.22
2022-07-31T14:55:04.608Z,54.58
2022-07-31T14:57:38.603Z,55.16
2022-07-31T15:00:12.886Z,54.39
2022-07-31T15:02:44.883Z,54.30
2022-07-31T15:06:38.711Z,54.46
2022-07-31T15:08:08.741Z,54.39
2022-07-31T15:10:37.869Z,54.83
2022-07-31T15:13:09.095Z,54.46
2022-07-31T15:15:37.491Z,54.18
2022-07-31T15:18:06.235Z,54.36
2022-07-31T15:20:38.296Z,54.44
2022-07-31T15:23:12.512Z,55.92
2022-07-31T15:25:41.062Z,55.41
2022-07-31T15:28:16.591Z,55.65
2022-07-31T15:30:45.386Z,56.15
2022-07-31T15:33:13.857Z,56.06
2022-07-31T15:35:42.241Z,54.99
2022-07-31T15:38:11.896Z,56.19
2022-07-31T15:40:40.649Z,55.94
2022-07-31T15:43:09.022Z,55.65
2022-07-31T15:45:37.375Z,56.00
2022-07-31T15:48:10.122Z,55.42
2022-07-31T15:50:38.792Z,55.98
2022-07-31T15:53:07.228Z,56.10
2022-07-31T15:55:36.895Z,56.52
2022-07-31T15:58:05.298Z,57.41
2022-07-31T16:00:33.660Z,56.85
2022-07-31T16:03:04.575Z,57.39
2022-07-31T16:05:36.148Z,56.83
2022-07-31T16:08:30.837Z,56.31
2022-07-31T16:10:57.160Z,56.92
2022-07-31T16:13:26.088Z,57.03
2022-07-31T16:15:54.815Z,57.18
2022-07-31T16:18:23.271Z,57.26
2022-07-31T16:20:51.637Z,57.25
2022-07-31T16:23:20.122Z,56.97
2022-07-31T16:25:48.484Z,56.79
2022-07-31T16:28:18.263Z,57.12
2022-07-31T16:30:46.887Z,57.51
2022-07-31T16:33:15.629Z,57.74
2022-07-31T16:35:44.200Z,57.24
2022-07-31T16:38:12.493Z,58.40
2022-07-31T16:40:40.958Z,57.35
2022-07-31T16:43:50.996Z,57.46
2022-07-31T16:45:59.208Z,57.55
2022-07-31T16:48:27.561Z,57.74
2022-07-31T16:50:55.893Z,57.57
2022-07-31T16:54:12.101Z,58.00
2022-07-31T16:56:14.089Z,58.10
2022-07-31T16:58:43.887Z,57.58
2022-07-31T17:01:57.433Z,57.59
2022-07-31T17:04:04.349Z,57.56
2022-07-31T17:06:34.705Z,57.46
2022-07-31T17:09:15.864Z,57.62
2022-07-31T17:11:48.703Z,57.96
2022-07-31T17:14:18.218Z,57.80
2022-07-31T17:16:49.533Z,58.07
2022-07-31T17:19:42.301Z,58.77
2022-07-31T17:22:07.790Z,59.02
2022-07-31T17:24:37.808Z,58.84
2022-07-31T17:27:08.287Z,58.57
2022-07-31T17:29:37.642Z,59.25
2022-07-31T17:32:07.523Z,59.18
2022-07-31T17:34:36.421Z,59.64
2022-07-31T17:37:05.380Z,59.81
2022-07-31T17:39:34.057Z,59.83
2022-07-31T17:42:02.801Z,59.88
2022-07-31T17:44:31.209Z,59.90
2022-07-31T17:47:00.228Z,60.12
2022-07-31T17:49:33.667Z,60.24
2022-07-31T17:52:02.093Z,60.19
2022-07-31T17:54:31.446Z,60.21
2022-07-31T17:57:00.243Z,60.70
2022-07-31T17:59:28.770Z,60.31
2022-07-31T18:02:00.225Z,60.43
2022-07-31T18:04:32.197Z,60.52
2022-07-31T18:07:04.363Z,60.86
2022-07-31T18:09:33.975Z,60.82
2022-07-31T18:12:02.793Z,60.76
2022-07-31T18:14:31.480Z,60.79
2022-07-31T18:17:00.516Z,61.02
2022-07-31T18:19:29.147Z,60.89
2022-07-31T18:21:57.616Z,61.15
2022-07-31T18:24:27.324Z,61.02
2022-07-31T18:26:55.634Z,60.93
2022-07-31T18:29:23.956Z,61.02
2022-07-31T18:31:52.309Z,61.51
2022-07-31T18:34:20.729Z,61.07
2022-07-31T18:36:54.572Z,61.60
2022-07-31T18:39:23.792Z,61.51
2022-07-31T18:41:53.559Z,61.54
2022-07-31T18:44:22.438Z,61.83
2022-07-31T18:46:50.844Z,62.10
2022-07-31T18:51:03.119Z,62.45
2022-07-31T18:52:09.456Z,62.47
2022-07-31T18:54:38.226Z,62.63
2022-07-31T18:57:08.921Z,62.61
2022-07-31T18:59:37.719Z,62.60
2022-07-31T19:02:08.728Z,62.79
2022-07-31T19:04:40.178Z,62.85
2022-07-31T19:07:08.761Z,63.10
2022-07-31T19:09:37.376Z,63.39
2022-07-31T19:12:08.650Z,63.44
2022-07-31T19:14:37.568Z,63.90
2022-07-31T19:17:06.086Z,63.92
2022-07-31T19:19:52.740Z,64.14
2022-07-31T19:22:24.095Z,64.33
2022-07-31T19:24:52.451Z,64.22
2022-07-31T19:27:22.377Z,64.48
2022-07-31T19:30:13.235Z,64.20
2022-07-31T19:32:41.745Z,64.54
2022-07-31T19:35:10.701Z,64.63
2022-07-31T19:37:39.073Z,64.47
2022-07-31T19:40:08.866Z,64.35
2022-07-31T19:42:39.473Z,64.59
2022-07-31T19:45:08.600Z,64.86
2022-07-31T19:47:36.958Z,64.95
2022-07-31T19:50:07.485Z,64.82
2022-07-31T19:52:35.892Z,64.72
2022-07-31T19:55:04.288Z,65.01
2022-07-31T19:57:32.760Z,65.07
2022-07-31T20:00:02.512Z,65.53
2022-07-31T20:02:32.574Z,67.15
2022-07-31T20:05:00.835Z,68.39
2022-07-31T20:07:32.694Z,70.04
2022-07-31T20:10:04.149Z,71.14
2022-07-31T20:12:32.743Z,72.61
2022-07-31T20:15:02.625Z,73.52
2022-07-31T20:17:31.266Z,73.39
2022-07-31T20:20:12.671Z,74.18
2022-07-31T20:22:44.351Z,74.37
2022-07-31T20:25:20.431Z,74.21
2022-07-31T20:27:50.060Z,74.27
2022-07-31T20:30:22.183Z,74.25
2022-07-31T20:32:51.501Z,74.38
2022-07-31T20:35:29.174Z,74.55
2022-07-31T20:38:15.542Z,74.30
2022-07-31T20:40:53.095Z,73.69
2022-07-31T20:43:23.374Z,73.82
2022-07-31T20:45:53.830Z,73.38
2022-07-31T20:48:24.505Z,73.53
2022-07-31T20:50:53.378Z,73.36
2022-07-31T20:53:23.103Z,73.62
2022-07-31T20:55:51.479Z,72.84
2022-07-31T20:58:20.242Z,72.27
2022-07-31T21:00:49.265Z,71.86
2022-07-31T21:03:20.214Z,70.93
2022-07-31T21:05:48.761Z,70.62
2022-07-31T21:08:17.696Z,70.72
2022-07-31T21:10:46.441Z,70.55
2022-07-31T21:13:14.832Z,70.91
2022-07-31T21:15:45.258Z,70.81
2022-07-31T21:18:14.375Z,70.97
2022-07-31T21:20:50.701Z,71.03
2022-07-31T21:23:23.687Z,71.48
2022-07-31T21:25:52.638Z,70.61
2022-07-31T21:28:21.527Z,70.93
2022-07-31T21:30:50.373Z,70.68
2022-07-31T21:33:18.953Z,70.77
2022-07-31T21:35:49.218Z,70.40
2022-07-31T21:38:19.575Z,70.48
2022-07-31T21:40:48.779Z,69.57
2022-07-31T21:43:18.646Z,69.55
2022-07-31T21:45:57.501Z,70.25
2022-07-31T21:48:30.883Z,69.58
2022-07-31T21:51:01.592Z,69.44
2022-07-31T21:53:29.990Z,69.36
2022-07-31T21:56:02.128Z,69.42
2022-07-31T21:58:30.489Z,69.79
2022-07-31T22:00:58.847Z,69.58
2022-07-31T22:03:27.295Z,69.60
2022-07-31T22:06:13.056Z,69.98
2022-07-31T22:08:42.781Z,69.61
2022-07-31T22:11:11.136Z,69.46
2022-07-31T22:13:39.463Z,69.59
2022-07-31T22:16:07.875Z,69.63
2022-07-31T22:18:36.496Z,69.84
2022-07-31T22:21:07.107Z,69.44
2022-07-31T22:23:36.482Z,69.62
2022-07-31T22:26:07.102Z,69.42
2022-07-31T22:28:36.550Z,69.49
2022-07-31T22:31:05.708Z,69.31
2022-07-31T22:33:34.062Z,69.79
2022-07-31T22:36:07.132Z,69.71
2022-07-31T22:38:49.717Z,69.73
2022-07-31T22:41:19.595Z,69.60
2022-07-31T22:44:12.300Z,69.50
2022-07-31T22:46:38.096Z,69.48
2022-07-31T22:49:08.645Z,69.36
2022-07-31T22:51:38.703Z,69.71
2022-07-31T22:54:07.651Z,69.98
2022-07-31T22:56:37.303Z,70.06
2022-07-31T22:59:05.723Z,70.39
2022-07-31T23:01:34.104Z,70.29
2022-07-31T23:04:02.439Z,70.66
2022-07-31T23:06:32.696Z,70.91
2022-07-31T23:09:02.540Z,70.84
2022-07-31T23:11:31.041Z,70.55
2022-07-31T23:14:00.766Z,70.48
2022-07-31T23:16:29.290Z,70.35
2022-07-31T23:18:57.646Z,70.53
2022-07-31T23:21:26.004Z,70.52
2022-07-31T23:23:54.370Z,70.43
2022-07-31T23:26:25.030Z,70.66
2022-07-31T23:28:54.417Z,70.66
2022-07-31T23:31:24.641Z,70.42
2022-07-31T23:33:53.393Z,70.27
2022-07-31T23:36:21.896Z,70.46
2022-07-31T23:38:50.193Z,70.67
2022-07-31T23:41:39.929Z,70.61
2022-07-31T23:44:09.942Z,70.78
2022-07-31T23:46:40.657Z,70.74
2022-07-31T23:49:09.766Z,71.04
2022-07-31T23:51:38.403Z,70.97
2022-07-31T23:54:07.671Z,70.80
2022-07-31T23:56:38.121Z,70.58
2022-07-31T23:59:06.377Z,70.74
